Terminal Aerodrome Forecast
Issued by NWS

Home | Current Version | Previous Version | Text Only | Print | Product List | Glossary On
Versions: 1 2 3 4 5 6 7 8 9 10 11 12 13 14
578
FTUS43 KLSX 200901 AAA
TAFSUS
TAF AMD
KSUS 200901Z 2009/2106 19007KT P6SM BKN080
     FM201200 20007KT P6SM VCSH BKN060
     FM201500 24012G20KT P6SM -SHRA VCTS BKN050CB
     FM201900 27011KT P6SM VCSH BKN040
     FM202200 30011KT P6SM BKN060
     FM210000 31007KT P6SM SCT110=

USA.gov is the U.S. government's official web portal to all federal, state and local government web resources and services.